Time;durP1;ratioP1;P1;durP2;ratioP2;P2;SDS_P1;SDS_P2;PMS_P1;PMS_P2;Temp;Humidity;BMP_temperature;BMP_pressure;BME280_temperature;BME280_humidity;BME280_pressure;Samples;Min_cycle;Max_cycle;Signal;HPM_P1;HPM_P2
2023/04/28 00:02:17;;;;;;;19.93;10.00;;;14.60;97.40;;;;;;5068905;28;20467;-62
2023/04/28 00:04:44;;;;;;;17.93;9.03;;;14.60;97.40;;;;;;5048623;28;20491;-61
2023/04/28 00:07:11;;;;;;;27.73;12.30;;;14.60;97.30;;;;;;5051320;28;21182;-62
2023/04/28 00:09:37;;;;;;;18.13;9.80;;;14.60;97.60;;;;;;5047324;28;20479;-61
2023/04/28 00:12:06;;;;;;;13.30;7.87;;;14.50;98.40;;;;;;5045111;28;20483;-61
2023/04/28 00:14:33;;;;;;;22.03;10.00;;;14.50;98.00;;;;;;5052117;28;20812;-62
2023/04/28 00:17:00;;;;;;;23.60;11.20;;;14.50;98.40;;;;;;5051100;28;20483;-61
2023/04/28 00:19:27;;;;;;;34.20;14.87;;;14.50;98.10;;;;;;5073701;27;20475;-61
2023/04/28 00:21:54;;;;;;;15.43;9.00;;;14.50;98.10;;;;;;5055540;28;20889;-62
2023/04/28 00:24:21;;;;;;;35.37;15.83;;;14.50;98.40;;;;;;5066455;27;20536;-62
2023/04/28 00:26:48;;;;;;;17.07;9.33;;;14.30;99.10;;;;;;5052765;28;20495;-62
2023/04/28 00:29:16;;;;;;;24.90;10.97;;;14.10;99.90;;;;;;5051641;28;20709;-61
2023/04/28 00:31:42;;;;;;;18.40;9.07;;;13.90;99.90;;;;;;5049362;28;20483;-62
2023/04/28 00:34:12;;;;;;;20.50;10.30;;;14.00;99.90;;;;;;5051130;28;20866;-61
2023/04/28 00:36:39;;;;;;;24.83;12.10;;;14.00;99.90;;;;;;5048893;28;20853;-62
2023/04/28 00:39:06;;;;;;;18.83;10.40;;;13.90;99.90;;;;;;5039107;28;20483;-61
2023/04/28 00:41:34;;;;;;;19.87;9.87;;;13.80;99.90;;;;;;5077793;28;20532;-62
2023/04/28 00:44:01;;;;;;;15.33;9.23;;;13.70;99.90;;;;;;5052803;28;20467;-62
2023/04/28 00:46:31;;;;;;;29.90;14.93;;;13.80;99.90;;;;;;5049874;28;20487;-61
2023/04/28 00:48:58;;;;;;;16.63;9.47;;;13.80;99.90;;;;;;5038382;28;20577;-61
2023/04/28 00:51:26;;;;;;;28.70;13.00;;;13.80;99.90;;;;;;5051083;28;20477;-61
2023/04/28 00:53:53;;;;;;;13.90;8.93;;;13.80;99.90;;;;;;5049648;28;20572;-61
2023/04/28 00:57:17;;;;;;;33.00;15.77;;;14.00;99.90;;;;;;5045284;28;20479;-61
2023/04/28 00:59:44;;;;;;;104.57;47.33;;;14.00;99.90;;;;;;5049112;28;20487;-61
2023/04/28 01:02:16;;;;;;;24.23;13.40;;;14.00;99.90;;;;;;5040604;28;20872;-61
2023/04/28 01:04:43;;;;;;;22.00;9.97;;;14.00;99.90;;;;;;5068746;28;20482;-62
2023/04/28 01:07:10;;;;;;;29.33;10.73;;;14.00;99.90;;;;;;5056475;28;20688;-61
2023/04/28 01:09:37;;;;;;;18.10;10.13;;;14.10;99.90;;;;;;5050412;28;20906;-62
2023/04/28 01:12:04;;;;;;;22.53;12.37;;;14.10;99.90;;;;;;5048649;28;20540;-61
2023/04/28 01:14:32;;;;;;;33.33;12.23;;;14.20;99.90;;;;;;5048614;28;20478;-61
2023/04/28 01:16:59;;;;;;;19.13;11.30;;;14.10;99.90;;;;;;5050272;28;21073;-61
2023/04/28 01:19:28;;;;;;;26.83;11.97;;;13.80;99.90;;;;;;5047989;28;20492;-61
2023/04/28 01:21:55;;;;;;;19.37;9.20;;;13.70;99.90;;;;;;5047620;28;20482;-61
2023/04/28 01:24:23;;;;;;;31.00;14.00;;;13.60;99.90;;;;;;5047778;28;20475;-61
2023/04/28 01:26:49;;;;;;;16.07;8.40;;;13.50;99.90;;;;;;5049652;28;20846;-62
2023/04/28 01:29:16;;;;;;;18.50;9.23;;;13.50;99.90;;;;;;5042446;28;20995;-61
2023/04/28 01:31:43;;;;;;;15.20;7.07;;;13.50;99.90;;;;;;5049507;28;20479;-62
2023/04/28 01:34:09;;;;;;;23.90;12.30;;;13.30;99.90;;;;;;5050219;28;20476;-61
2023/04/28 01:36:36;;;;;;;20.87;10.60;;;13.50;99.90;;;;;;5049985;28;20531;-61
2023/04/28 01:39:03;;;;;;;24.90;10.77;;;13.60;99.90;;;;;;5050464;28;20476;-61
2023/04/28 01:41:33;;;;;;;30.00;13.37;;;13.60;99.90;;;;;;5042487;28;20489;-62
2023/04/28 01:43:59;;;;;;;24.90;11.07;;;13.80;99.90;;;;;;5050993;28;20479;-61
2023/04/28 01:46:26;;;;;;;30.00;14.00;;;13.80;99.90;;;;;;5050583;28;20478;-62
2023/04/28 01:48:53;;;;;;;17.67;9.13;;;13.90;99.90;;;;;;5048892;28;21125;-62
2023/04/28 01:51:20;;;;;;;34.67;14.47;;;13.90;99.90;;;;;;5052259;27;20531;-62
2023/04/28 01:53:46;;;;;;;18.50;9.57;;;14.00;99.90;;;;;;5062981;28;20487;-61
2023/04/28 01:56:13;;;;;;;24.30;12.50;;;13.80;99.90;;;;;;5049754;28;20530;-62
2023/04/28 01:58:41;;;;;;;16.83;8.50;;;13.70;99.90;;;;;;5067597;28;20481;-61
2023/04/28 02:01:07;;;;;;;21.50;9.43;;;13.60;99.90;;;;;;5048963;28;20475;-61
2023/04/28 02:03:34;;;;;;;23.93;12.00;;;13.70;99.90;;;;;;5049406;28;21212;-61
2023/04/28 02:06:01;;;;;;;21.03;9.67;;;13.70;99.90;;;;;;5049989;27;20488;-61
2023/04/28 02:08:27;;;;;;;29.83;13.40;;;13.70;99.90;;;;;;5063522;28;20466;-62
2023/04/28 02:10:56;;;;;;;21.80;11.00;;;13.80;99.90;;;;;;5049711;28;20490;-61
2023/04/28 02:13:22;;;;;;;28.27;13.10;;;13.90;99.90;;;;;;5047256;28;20743;-62
2023/04/28 02:15:50;;;;;;;20.93;11.77;;;13.90;99.90;;;;;;5046905;28;20486;-61
2023/04/28 02:18:17;;;;;;;33.83;15.00;;;14.00;99.90;;;;;;5047252;28;21278;-61
2023/04/28 02:20:44;;;;;;;18.87;9.70;;;14.10;99.90;;;;;;5047586;28;20839;-61
2023/04/28 02:23:10;;;;;;;25.10;12.63;;;14.10;99.90;;;;;;5044695;28;20483;-61
2023/04/28 02:25:37;;;;;;;23.67;12.53;;;14.20;99.90;;;;;;5047189;28;20504;-61
2023/04/28 02:28:04;;;;;;;16.53;9.03;;;14.10;99.90;;;;;;5045746;28;20484;-61
2023/04/28 02:30:30;;;;;;;24.93;13.03;;;13.90;99.90;;;;;;5048045;28;20480;-61
2023/04/28 02:32:58;;;;;;;21.10;11.40;;;13.90;99.90;;;;;;5050008;28;20704;-61
2023/04/28 02:35:25;;;;;;;28.37;13.33;;;14.10;99.90;;;;;;5051373;28;20472;-61
2023/04/28 02:37:52;;;;;;;14.03;9.13;;;14.10;99.90;;;;;;5052530;28;20975;-61
2023/04/28 02:40:19;;;;;;;28.60;13.63;;;14.10;99.90;;;;;;5072465;28;21289;-61
2023/04/28 02:42:46;;;;;;;18.50;9.60;;;13.90;99.90;;;;;;5054551;28;20483;-60
2023/04/28 02:45:13;;;;;;;30.30;14.70;;;13.80;99.90;;;;;;5056032;28;20478;-61
2023/04/28 02:47:40;;;;;;;15.93;9.33;;;13.90;99.90;;;;;;5058212;28;20483;-61
2023/04/28 02:50:09;;;;;;;18.67;9.50;;;14.00;99.90;;;;;;5058962;28;20491;-61
2023/04/28 02:52:36;;;;;;;19.60;10.57;;;14.10;99.90;;;;;;5063263;28;20929;-61
2023/04/28 02:55:03;;;;;;;14.27;9.20;;;14.10;99.90;;;;;;5078117;28;20485;-62
2023/04/28 02:57:30;;;;;;;23.50;10.40;;;14.10;99.90;;;;;;5046942;28;20891;-61
2023/04/28 02:59:57;;;;;;;20.20;10.53;;;14.00;99.90;;;;;;5078534;28;20512;-61
2023/04/28 03:02:24;;;;;;;29.83;15.00;;;14.10;99.90;;;;;;5061513;28;20483;-61
2023/04/28 03:04:50;;;;;;;17.10;8.30;;;14.10;99.90;;;;;;5101155;28;20871;-61
2023/04/28 03:07:18;;;;;;;25.37;12.17;;;14.20;99.90;;;;;;5057840;28;20501;-61
2023/04/28 03:09:46;;;;;;;11.90;8.50;;;14.10;99.90;;;;;;5053968;28;20901;-61
2023/04/28 03:12:12;;;;;;;17.67;10.67;;;14.20;99.90;;;;;;5053423;28;20506;-61
2023/04/28 03:14:39;;;;;;;13.83;9.63;;;14.20;99.90;;;;;;5066179;28;20481;-61
2023/04/28 03:17:06;;;;;;;11.17;7.60;;;14.20;99.90;;;;;;5076447;28;20485;-61
2023/04/28 03:19:33;;;;;;;19.63;9.27;;;14.10;99.90;;;;;;5058546;28;20487;-62
2023/04/28 03:21:59;;;;;;;17.77;10.27;;;14.20;99.90;;;;;;5060042;28;20561;-61
2023/04/28 03:24:27;;;;;;;19.80;10.87;;;14.20;99.90;;;;;;5077935;28;20498;-62
2023/04/28 03:26:54;;;;;;;14.13;8.37;;;14.10;99.90;;;;;;5064273;28;20484;-61
2023/04/28 03:29:23;;;;;;;26.93;13.83;;;14.00;99.90;;;;;;5061556;28;20850;-61
2023/04/28 03:31:49;;;;;;;16.20;10.03;;;14.00;99.90;;;;;;5060656;28;20489;-61
2023/04/28 03:34:16;;;;;;;18.23;8.90;;;14.10;99.90;;;;;;5093250;27;20480;-61
2023/04/28 03:36:43;;;;;;;12.57;7.60;;;14.10;99.90;;;;;;5078879;28;20478;-61
2023/04/28 03:39:10;;;;;;;24.83;9.53;;;14.10;99.90;;;;;;5073143;28;20472;-62
2023/04/28 03:41:38;;;;;;;18.90;9.63;;;14.10;99.90;;;;;;5061700;28;20568;-61
2023/04/28 03:44:05;;;;;;;14.10;9.17;;;14.20;99.90;;;;;;5065118;28;20468;-61
2023/04/28 03:46:33;;;;;;;16.60;9.37;;;14.30;99.90;;;;;;5071131;28;20474;-61
2023/04/28 03:49:01;;;;;;;17.93;9.97;;;14.40;99.90;;;;;;5071756;28;20482;-61
2023/04/28 03:51:27;;;;;;;24.93;13.33;;;14.50;99.90;;;;;;5058561;28;20545;-61
2023/04/28 03:53:54;;;;;;;13.07;8.90;;;14.50;99.90;;;;;;5083628;27;20533;-61
2023/04/28 03:56:21;;;;;;;30.23;14.03;;;14.60;99.90;;;;;;5066734;28;20537;-61
2023/04/28 03:58:49;;;;;;;17.17;10.43;;;14.60;99.90;;;;;;5056115;28;20562;-61
2023/04/28 04:01:16;;;;;;;21.97;12.17;;;14.60;99.90;;;;;;5059060;28;20474;-62
2023/04/28 04:03:43;;;;;;;15.13;9.40;;;14.50;99.90;;;;;;5060154;28;20479;-61
2023/04/28 04:06:10;;;;;;;17.93;11.00;;;14.50;99.90;;;;;;5084662;28;20475;-61
2023/04/28 04:08:37;;;;;;;18.00;10.90;;;14.50;99.90;;;;;;5056952;28;20477;-61
2023/04/28 04:11:03;;;;;;;17.10;8.90;;;14.50;99.90;;;;;;5078342;28;20482;-61
2023/04/28 04:13:30;;;;;;;20.77;11.20;;;14.50;99.90;;;;;;5071925;28;20464;-61
2023/04/28 04:15:58;;;;;;;17.97;10.57;;;14.50;99.90;;;;;;5066477;27;20502;-61
2023/04/28 04:18:26;;;;;;;24.00;11.97;;;14.50;99.90;;;;;;5088348;27;20494;-61
2023/04/28 04:20:54;;;;;;;14.70;9.20;;;14.50;99.90;;;;;;5056454;28;20553;-61
2023/04/28 04:23:21;;;;;;;21.83;11.70;;;14.50;99.90;;;;;;5058579;28;20489;-62
2023/04/28 04:25:48;;;;;;;14.00;9.17;;;14.50;99.90;;;;;;5071082;28;20483;-61
2023/04/28 04:28:15;;;;;;;23.53;12.97;;;14.60;99.90;;;;;;5074492;28;20490;-62
2023/04/28 04:30:42;;;;;;;16.70;10.50;;;14.50;99.90;;;;;;5077438;28;20466;-62
2023/04/28 04:33:10;;;;;;;14.13;8.97;;;14.50;99.90;;;;;;5058818;28;20727;-61
2023/04/28 04:35:37;;;;;;;18.53;10.10;;;14.40;99.90;;;;;;5069058;27;20470;-62
2023/04/28 04:38:04;;;;;;;18.53;10.53;;;;;;;;;;5085051;28;20462;-61
2023/04/28 04:40:31;;;;;;;20.57;11.20;;;14.30;99.90;;;;;;5060142;28;20474;-61
2023/04/28 04:42:57;;;;;;;13.53;8.70;;;14.40;99.90;;;;;;5061067;28;20491;-61
2023/04/28 04:45:24;;;;;;;23.57;12.13;;;14.50;99.90;;;;;;5064741;28;20493;-61
2023/04/28 04:47:51;;;;;;;11.70;8.00;;;14.50;99.90;;;;;;5060634;28;20476;-62
2023/04/28 04:50:20;;;;;;;21.73;12.00;;;14.40;99.90;;;;;;5060948;28;20483;-61
2023/04/28 04:52:46;;;;;;;10.73;8.00;;;14.30;99.90;;;;;;5056803;28;20486;-62
2023/04/28 04:55:13;;;;;;;21.67;11.90;;;14.20;99.90;;;;;;5073272;28;20479;-61
2023/04/28 04:57:40;;;;;;;16.23;9.40;;;14.20;99.90;;;;;;5060602;28;20475;-60
2023/04/28 05:00:07;;;;;;;15.70;9.90;;;;;;;;;;5065033;28;21018;-62
2023/04/28 05:02:34;;;;;;;18.43;11.03;;;14.20;99.90;;;;;;5074993;28;20653;-62
2023/04/28 05:05:01;;;;;;;18.77;10.13;;;14.20;99.90;;;;;;5057718;28;20525;-62
2023/04/28 05:07:29;;;;;;;28.43;13.83;;;14.30;99.90;;;;;;5094323;27;20857;-62
2023/04/28 05:09:55;;;;;;;20.27;10.53;;;14.30;99.90;;;;;;5076617;28;20483;-62
2023/04/28 05:12:22;;;;;;;26.83;12.70;;;14.30;99.90;;;;;;5057702;28;20494;-61
2023/04/28 05:14:49;;;;;;;16.87;10.43;;;;;;;;;;5056281;28;20983;-60
2023/04/28 05:17:16;;;;;;;27.07;14.03;;;14.40;99.90;;;;;;5069250;28;20482;-62
2023/04/28 05:19:43;;;;;;;12.80;9.47;;;14.40;99.90;;;;;;5056428;28;20483;-62
2023/04/28 05:22:11;;;;;;;14.97;9.10;;;;;;;;;;5058897;28;21061;-61
2023/04/28 05:24:39;;;;;;;20.80;11.10;;;14.50;99.90;;;;;;5049641;28;20475;-61
2023/04/28 05:27:05;;;;;;;17.07;10.50;;;14.40;99.90;;;;;;5059156;28;20855;-62
2023/04/28 05:29:32;;;;;;;17.10;10.17;;;14.40;99.90;;;;;;5072667;28;20482;-61
2023/04/28 05:31:59;;;;;;;15.70;9.67;;;14.40;99.90;;;;;;5064808;28;20487;-61
2023/04/28 05:34:25;;;;;;;28.83;15.20;;;14.50;99.90;;;;;;5052333;28;20692;-61
2023/04/28 05:36:52;;;;;;;16.10;10.10;;;14.50;99.90;;;;;;5068031;28;20513;-61
2023/04/28 05:39:19;;;;;;;30.30;15.33;;;14.40;99.90;;;;;;5069342;28;20949;-61
2023/04/28 05:41:47;;;;;;;15.37;9.47;;;14.50;99.90;;;;;;5062432;28;20915;-61
2023/04/28 05:44:14;;;;;;;27.40;15.17;;;14.50;99.90;;;;;;5074054;28;20474;-61
2023/04/28 05:46:41;;;;;;;21.47;11.70;;;14.50;99.90;;;;;;5065128;28;20479;-61
2023/04/28 05:49:07;;;;;;;15.33;9.57;;;14.50;99.90;;;;;;5058073;28;20573;-61
2023/04/28 05:51:34;;;;;;;22.47;11.30;;;;;;;;;;5058280;28;20482;-62
2023/04/28 05:54:01;;;;;;;21.00;11.47;;;14.50;99.90;;;;;;5050787;28;20506;-62
2023/04/28 05:56:28;;;;;;;31.17;14.70;;;14.50;99.90;;;;;;5071974;28;20990;-62
2023/04/28 05:58:57;;;;;;;18.43;10.70;;;14.50;99.90;;;;;;5073322;28;20490;-62
2023/04/28 06:01:24;;;;;;;29.63;14.30;;;14.50;99.90;;;;;;5055967;28;20541;-61
2023/04/28 06:03:52;;;;;;;18.70;11.23;;;14.60;99.90;;;;;;5093061;27;20488;-62
2023/04/28 06:06:19;;;;;;;30.53;14.37;;;14.60;99.90;;;;;;5070180;28;20478;-61
2023/04/28 06:08:46;;;;;;;12.40;9.13;;;14.70;99.90;;;;;;5074269;28;20475;-61
2023/04/28 06:11:13;;;;;;;18.10;10.57;;;14.70;99.90;;;;;;5072513;28;20966;-62
2023/04/28 06:13:39;;;;;;;19.70;11.43;;;14.70;99.90;;;;;;5065475;28;20490;-61
2023/04/28 06:16:08;;;;;;;18.60;10.87;;;14.70;99.90;;;;;;5059909;28;20498;-62
2023/04/28 06:18:35;;;;;;;16.53;10.80;;;14.70;99.90;;;;;;5056216;28;20483;-62
2023/04/28 06:21:02;;;;;;;20.27;10.03;;;14.70;99.90;;;;;;5056315;28;20511;-61
2023/04/28 06:23:28;;;;;;;29.77;15.33;;;14.60;99.90;;;;;;5067919;28;20471;-61
2023/04/28 06:25:55;;;;;;;17.43;10.53;;;14.70;99.90;;;;;;5075696;28;21249;-61
2023/04/28 06:28:22;;;;;;;38.80;17.57;;;14.80;99.90;;;;;;5063227;28;20479;-61
2023/04/28 06:30:49;;;;;;;17.20;10.63;;;14.70;99.90;;;;;;5056906;28;20494;-61
2023/04/28 06:33:17;;;;;;;18.70;11.03;;;14.70;99.90;;;;;;5052590;28;20495;-61
2023/04/28 06:35:43;;;;;;;23.77;10.60;;;14.90;99.90;;;;;;5054447;28;20494;-61
2023/04/28 06:38:10;;;;;;;15.27;9.27;;;14.80;99.90;;;;;;5049528;28;20510;-61
2023/04/28 06:40:38;;;;;;;14.93;9.03;;;14.90;99.90;;;;;;5056679;28;20483;-61
2023/04/28 06:43:05;;;;;;;19.83;12.43;;;15.00;99.90;;;;;;5054357;28;20568;-61
2023/04/28 06:45:32;;;;;;;26.80;14.93;;;15.00;99.90;;;;;;5043148;28;20575;-61
2023/04/28 06:47:58;;;;;;;22.30;13.90;;;15.00;99.90;;;;;;5061308;28;20608;-62
2023/04/28 06:50:26;;;;;;;25.23;13.73;;;15.00;99.90;;;;;;5052994;28;20480;-61
2023/04/28 06:52:53;;;;;;;22.73;14.97;;;15.00;99.90;;;;;;5057066;28;20477;-62
2023/04/28 06:55:20;;;;;;;30.63;18.00;;;15.00;99.90;;;;;;5052811;28;20999;-62
2023/04/28 06:57:47;;;;;;;19.63;13.47;;;15.10;99.90;;;;;;5079866;28;21029;-62
2023/04/28 07:00:15;;;;;;;23.77;15.27;;;15.20;99.90;;;;;;5071804;28;20474;-61
2023/04/28 07:02:42;;;;;;;22.70;14.57;;;15.20;99.90;;;;;;5073479;28;20475;-63
2023/04/28 07:05:09;;;;;;;19.70;12.70;;;15.40;99.90;;;;;;5075858;28;20486;-62
2023/04/28 07:07:38;;;;;;;22.73;14.40;;;15.40;99.90;;;;;;5080317;28;20962;-62
2023/04/28 07:10:06;;;;;;;20.10;13.13;;;15.50;99.90;;;;;;5079138;28;20486;-63
2023/04/28 07:12:32;;;;;;;18.53;12.67;;;15.50;99.90;;;;;;5077303;28;20566;-62
2023/04/28 07:14:59;;;;;;;19.23;12.87;;;15.60;99.90;;;;;;5074752;28;20486;-63
2023/04/28 07:17:26;;;;;;;25.10;14.00;;;15.60;99.90;;;;;;5077172;28;20478;-63
2023/04/28 07:19:52;;;;;;;18.50;12.03;;;15.70;99.90;;;;;;5072102;28;20490;-62
2023/04/28 07:22:19;;;;;;;29.17;14.97;;;15.60;99.90;;;;;;5073794;28;20896;-62
2023/04/28 07:24:47;;;;;;;13.30;9.07;;;15.70;99.90;;;;;;5070030;28;20553;-62
2023/04/28 07:27:14;;;;;;;16.37;10.03;;;15.70;99.90;;;;;;5069696;28;20486;-62
2023/04/28 07:29:41;;;;;;;19.87;10.30;;;15.80;99.90;;;;;;5074648;28;20479;-62
2023/04/28 07:32:09;;;;;;;16.93;9.80;;;15.80;99.90;;;;;;5074481;27;20481;-63
2023/04/28 07:34:36;;;;;;;16.00;9.40;;;15.80;99.90;;;;;;5081100;28;20542;-63
2023/04/28 07:37:03;;;;;;;13.70;8.70;;;15.80;99.90;;;;;;5075915;28;20804;-63
2023/04/28 07:39:32;;;;;;;23.73;11.13;;;15.80;99.90;;;;;;5067210;28;20497;-62
2023/04/28 07:42:01;;;;;;;18.40;8.80;;;15.90;99.90;;;;;;5091641;28;21034;-62
2023/04/28 07:44:28;;;;;;;21.43;10.60;;;15.90;99.90;;;;;;5073826;28;20467;-62
2023/04/28 07:46:55;;;;;;;19.63;10.10;;;16.00;99.90;;;;;;5078706;28;20988;-61
2023/04/28 07:49:22;;;;;;;27.07;11.87;;;15.90;99.90;;;;;;5073514;27;20566;-61
2023/04/28 07:51:51;;;;;;;11.03;7.60;;;15.90;99.90;;;;;;5080977;28;20521;-61
2023/04/28 07:54:17;;;;;;;18.97;9.90;;;16.00;99.90;;;;;;5076784;28;20489;-61
2023/04/28 07:56:44;;;;;;;13.83;7.57;;;16.10;99.90;;;;;;5067927;28;20479;-61
2023/04/28 07:59:12;;;;;;;12.83;7.30;;;16.10;99.90;;;;;;5079860;28;20833;-61
2023/04/28 08:01:39;;;;;;;14.50;8.03;;;16.20;99.90;;;;;;5077061;28;20481;-62
2023/04/28 08:04:06;;;;;;;14.50;5.87;;;16.20;99.90;;;;;;5076275;28;20480;-61
2023/04/28 08:06:33;;;;;;;15.93;8.70;;;16.20;99.90;;;;;;5078280;28;20557;-62
2023/04/28 08:09:00;;;;;;;14.70;7.60;;;16.20;99.90;;;;;;5077638;28;21288;-61
2023/04/28 08:11:27;;;;;;;17.73;7.40;;;16.30;99.90;;;;;;5059759;27;20562;-62
2023/04/28 08:13:55;;;;;;;12.60;6.80;;;16.30;99.90;;;;;;5081296;28;20482;-62
2023/04/28 08:16:23;;;;;;;23.60;9.77;;;16.30;99.90;;;;;;5076936;28;20482;-61
2023/04/28 08:18:50;;;;;;;13.57;6.03;;;16.40;99.90;;;;;;5076068;28;20843;-62
2023/04/28 08:21:17;;;;;;;19.50;8.40;;;;;;;;;;5075833;28;20501;-62
2023/04/28 08:23:45;;;;;;;10.27;5.67;;;16.40;99.90;;;;;;5077661;28;20475;-62
2023/04/28 08:26:12;;;;;;;17.17;8.13;;;16.40;99.90;;;;;;5069230;28;20484;-61
2023/04/28 08:28:39;;;;;;;12.60;6.73;;;16.40;99.90;;;;;;5079653;28;20490;-62
2023/04/28 08:31:06;;;;;;;17.50;8.03;;;16.50;99.90;;;;;;5070265;28;20520;-62
2023/04/28 08:33:34;;;;;;;17.50;6.87;;;16.60;99.90;;;;;;5073332;28;20483;-61
2023/04/28 08:36:00;;;;;;;14.97;7.50;;;16.60;99.90;;;;;;5078948;28;20982;-62
2023/04/28 08:38:27;;;;;;;23.90;10.90;;;16.70;99.90;;;;;;5073191;27;20489;-62
2023/04/28 08:40:54;;;;;;;15.20;6.83;;;16.80;99.90;;;;;;5067745;28;20505;-62
2023/04/28 08:43:20;;;;;;;20.37;9.60;;;16.70;99.90;;;;;;5072224;28;20482;-62
2023/04/28 08:45:47;;;;;;;10.67;6.50;;;16.70;99.90;;;;;;5063997;28;20483;-63
2023/04/28 08:48:19;;;;;;;18.03;6.30;;;16.70;99.90;;;;;;5081240;27;20704;-62
2023/04/28 08:50:51;;;;;;;8.00;5.10;;;16.70;99.90;;;;;;5071109;28;20565;-62
2023/04/28 08:53:23;;;;;;;25.20;10.37;;;16.60;99.90;;;;;;5048645;28;20573;-63
2023/04/28 08:55:54;;;;;;;15.03;6.23;;;16.70;99.90;;;;;;5061981;28;20550;-62
2023/04/28 08:58:22;;;;;;;31.03;11.37;;;16.70;99.90;;;;;;5069001;28;20483;-62
2023/04/28 09:00:48;;;;;;;12.60;6.70;;;16.90;99.90;;;;;;5077279;27;20481;-62
2023/04/28 09:03:15;;;;;;;25.43;9.07;;;16.90;99.90;;;;;;5082375;28;20479;-62
2023/04/28 09:05:42;;;;;;;11.83;4.67;;;17.00;99.90;;;;;;5067781;28;20944;-63
2023/04/28 09:08:11;;;;;;;13.43;5.67;;;17.10;99.90;;;;;;5078249;28;20475;-63
2023/04/28 09:10:38;;;;;;;10.57;4.90;;;17.20;99.90;;;;;;5081361;27;20487;-62
2023/04/28 09:13:05;;;;;;;9.43;4.17;;;17.30;99.90;;;;;;5074982;27;20496;-62
2023/04/28 09:15:34;;;;;;;22.83;6.23;;;17.10;99.90;;;;;;5076696;28;20506;-62
2023/04/28 09:18:02;;;;;;;13.60;6.10;;;17.10;99.90;;;;;;5068690;27;20585;-63
2023/04/28 09:20:30;;;;;;;26.97;9.50;;;16.90;99.90;;;;;;5082813;28;20475;-62
2023/04/28 09:23:12;;;;;;;7.93;3.57;;;17.00;99.90;;;;;;5076875;27;20490;-62
2023/04/28 09:25:40;;;;;;;11.40;5.17;;;17.00;99.90;;;;;;5064508;28;20479;-62
2023/04/28 09:28:20;;;;;;;11.47;3.83;;;17.00;99.90;;;;;;5087995;28;20497;-62
2023/04/28 09:30:47;;;;;;;7.50;4.10;;;17.10;99.90;;;;;;5062466;28;20487;-62
2023/04/28 09:33:14;;;;;;;28.83;6.37;;;17.10;99.90;;;;;;5075452;28;20491;-62
2023/04/28 09:35:42;;;;;;;7.07;3.47;;;17.10;99.90;;;;;;5078897;28;20494;-62
2023/04/28 09:38:09;;;;;;;13.50;5.40;;;17.10;99.90;;;;;;5070596;28;20506;-62
2023/04/28 09:40:50;;;;;;;10.50;4.63;;;17.20;99.90;;;;;;5063776;27;20489;-61
2023/04/28 09:43:24;;;;;;;10.83;4.93;;;17.20;99.90;;;;;;5069490;28;20483;-62
2023/04/28 09:45:51;;;;;;;8.30;3.90;;;17.20;99.90;;;;;;5066816;28;20481;-62
2023/04/28 09:48:18;;;;;;;14.07;5.47;;;17.30;99.90;;;;;;5068476;28;20546;-61
2023/04/28 09:50:45;;;;;;;9.77;4.90;;;17.30;99.90;;;;;;5069824;28;20480;-61
2023/04/28 09:53:13;;;;;;;10.37;4.83;;;17.30;99.90;;;;;;5071824;28;20475;-61
2023/04/28 09:55:45;;;;;;;13.53;5.87;;;17.30;99.90;;;;;;5066217;27;20474;-62
2023/04/28 09:58:14;;;;;;;24.40;8.90;;;17.30;99.90;;;;;;5050848;28;20499;-61
2023/04/28 10:00:41;;;;;;;12.03;4.90;;;17.40;99.90;;;;;;5040011;28;20807;-62
2023/04/28 10:03:10;;;;;;;15.70;6.40;;;17.40;99.90;;;;;;5050499;28;20479;-62
2023/04/28 10:05:38;;;;;;;11.63;4.50;;;17.40;99.90;;;;;;5056897;28;22968;-62
2023/04/28 10:08:05;;;;;;;17.47;5.30;;;17.50;99.90;;;;;;5054118;28;20545;-62
2023/04/28 10:10:33;;;;;;;18.77;6.80;;;17.50;99.90;;;;;;5041024;28;20479;-62
2023/04/28 10:13:01;;;;;;;13.47;5.20;;;17.60;99.90;;;;;;5043798;28;20480;-62
2023/04/28 10:15:28;;;;;;;17.20;6.27;;;17.50;99.90;;;;;;5039668;28;20476;-62
2023/04/28 10:17:55;;;;;;;21.03;8.00;;;17.70;99.90;;;;;;5050169;28;20476;-63
2023/04/28 10:20:24;;;;;;;34.27;11.00;;;17.70;99.90;;;;;;5036632;28;20909;-61
2023/04/28 10:23:00;;;;;;;10.23;4.77;;;17.80;99.90;;;;;;5033308;28;20829;-63
2023/04/28 10:25:29;;;;;;;21.67;7.70;;;17.80;99.90;;;;;;5040909;28;20991;-63
2023/04/28 10:27:59;;;;;;;14.10;5.10;;;17.90;99.90;;;;;;5029892;28;21260;-62
2023/04/28 10:30:28;;;;;;;24.10;8.67;;;17.90;99.90;;;;;;5035599;28;20479;-62
2023/04/28 10:33:22;;;;;;;11.13;4.87;;;18.20;99.90;;;;;;5040265;28;20499;-63
2023/04/28 10:35:49;;;;;;;14.67;5.90;;;18.20;99.90;;;;;;5027929;28;20471;-63
2023/04/28 10:38:17;;;;;;;25.57;8.90;;;18.40;99.90;;;;;;5048707;28;20483;-63
2023/04/28 10:40:45;;;;;;;5.50;3.27;;;18.60;99.90;;;;;;5033401;28;20475;-61
2023/04/28 10:43:13;;;;;;;9.00;4.80;;;18.70;99.90;;;;;;5054108;28;20491;-62
2023/04/28 10:46:13;;;;;;;27.07;5.67;;;18.70;99.90;;;;;;5031365;28;20495;-62
2023/04/28 10:48:55;;;;;;;8.43;4.77;;;18.60;99.90;;;;;;5042513;28;20479;-62
2023/04/28 10:51:24;;;;;;;23.57;9.83;;;18.50;99.90;;;;;;5024497;28;20967;-62
2023/04/28 10:54:26;;;;;;;8.03;4.03;;;18.60;99.90;;;;;;5017811;28;21002;-62
2023/04/28 10:57:16;;;;;;;8.17;4.70;;;18.70;99.90;;;;;;5024431;28;20544;-62
2023/04/28 10:59:43;;;;;;;6.97;3.73;;;18.70;99.90;;;;;;5053912;28;20601;-62
2023/04/28 11:02:41;;;;;;;7.33;4.13;;;18.80;99.90;;;;;;5033417;28;20498;-62
2023/04/28 11:05:13;;;;;;;6.50;3.63;;;18.80;99.90;;;;;;5033364;28;20484;-62
2023/04/28 11:07:40;;;;;;;14.83;5.57;;;18.60;99.90;;;;;;5051719;28;20482;-62
2023/04/28 11:10:07;;;;;;;9.73;4.93;;;18.60;99.90;;;;;;5051401;28;20484;-62
2023/04/28 11:12:34;;;;;;;8.90;4.63;;;18.60;99.90;;;;;;5029070;28;20506;-63
2023/04/28 11:15:12;;;;;;;10.47;4.23;;;18.60;99.90;;;;;;5045363;28;20472;-61
2023/04/28 11:17:41;;;;;;;12.07;5.40;;;18.60;99.90;;;;;;5046317;28;20511;-62
2023/04/28 11:20:12;;;;;;;11.27;5.10;;;18.50;99.90;;;;;;5051153;28;20501;-62
2023/04/28 11:22:40;;;;;;;11.43;5.23;;;18.50;99.90;;;;;;5034916;28;20572;-62
2023/04/28 11:25:08;;;;;;;11.80;5.33;;;18.50;99.90;;;;;;5043206;28;20471;-62
2023/04/28 11:27:34;;;;;;;13.87;5.87;;;18.40;99.90;;;;;;5065598;28;20471;-62
2023/04/28 11:30:01;;;;;;;11.13;4.30;;;18.40;99.90;;;;;;5038077;28;20537;-62
2023/04/28 11:32:30;;;;;;;17.97;7.00;;;18.40;99.90;;;;;;5033265;28;20487;-61
2023/04/28 11:34:57;;;;;;;11.23;4.83;;;18.40;99.90;;;;;;5037420;28;20519;-62
2023/04/28 11:37:24;;;;;;;32.47;10.70;;;18.40;99.90;;;;;;5043634;28;21041;-62
2023/04/28 11:39:52;;;;;;;11.53;5.07;;;18.30;99.90;;;;;;5048119;28;20476;-62
2023/04/28 11:42:19;;;;;;;33.60;10.30;;;18.30;99.90;;;;;;5049160;28;21087;-62
2023/04/28 11:44:51;;;;;;;12.00;5.20;;;18.20;99.90;;;;;;5064511;28;20502;-62
2023/04/28 11:47:29;;;;;;;29.80;10.23;;;18.20;99.90;;;;;;5040224;28;20562;-62
2023/04/28 11:49:56;;;;;;;8.60;4.17;;;18.50;99.90;;;;;;5046662;28;20483;-62
2023/04/28 11:52:24;;;;;;;26.73;9.77;;;18.60;99.90;;;;;;5056667;28;20470;-61
2023/04/28 11:54:56;;;;;;;13.67;5.30;;;18.80;99.90;;;;;;5042958;28;21008;-62
2023/04/28 11:57:24;;;;;;;25.17;9.23;;;18.90;99.90;;;;;;5055035;28;20513;-62
2023/04/28 11:59:51;;;;;;;7.30;3.40;;;18.90;99.90;;;;;;5058883;28;20484;-62
2023/04/28 12:02:26;;;;;;;15.90;5.80;;;18.90;99.90;;;;;;5062555;28;20482;-62
2023/04/28 12:04:53;;;;;;;9.67;4.13;;;18.90;99.90;;;;;;5061492;28;20479;-63
2023/04/28 12:07:20;;;;;;;27.67;10.43;;;18.90;99.90;;;;;;5066309;28;20482;-63
2023/04/28 12:09:48;;;;;;;12.07;4.60;;;18.80;99.90;;;;;;5071826;28;20502;-63
2023/04/28 12:12:28;;;;;;;15.07;6.10;;;18.70;99.90;;;;;;5062087;28;20470;-62
2023/04/28 12:14:56;;;;;;;19.73;4.00;;;18.90;99.90;;;;;;5057241;28;20503;-62
2023/04/28 12:17:25;;;;;;;26.00;9.60;;;19.00;99.90;;;;;;5066754;28;21052;-62
2023/04/28 12:19:52;;;;;;;9.87;4.80;;;19.20;99.90;;;;;;5072614;27;20476;-62
2023/04/28 12:22:18;;;;;;;16.50;4.30;;;19.30;99.90;;;;;;5083298;28;20471;-62
2023/04/28 12:24:45;;;;;;;16.40;6.27;;;19.30;99.90;;;;;;5044827;27;20471;-62
2023/04/28 12:27:20;;;;;;;14.20;5.77;;;19.30;99.90;;;;;;5087522;27;20930;-62
2023/04/28 12:29:47;;;;;;;8.20;3.10;;;19.10;99.90;;;;;;5087173;28;20879;-63
2023/04/28 12:32:14;;;;;;;17.17;6.07;;;19.40;99.90;;;;;;5070972;28;21194;-63
2023/04/28 12:34:42;;;;;;;14.03;5.83;;;19.50;99.90;;;;;;5077831;28;20569;-62
2023/04/28 12:37:09;;;;;;;15.30;5.27;;;19.50;99.90;;;;;;5067020;28;20527;-62
2023/04/28 12:39:36;;;;;;;13.93;5.47;;;19.70;99.90;;;;;;5064319;28;20487;-63
2023/04/28 12:42:05;;;;;;;12.03;5.33;;;19.80;99.90;;;;;;5072966;28;20504;-63